Time,TemperatureF,DewpointF,PressureIn,WindDirection,WindDirectionDegrees,WindSpeedMPH,WindSpeedGustMPH,Humidity,HourlyPrecipIn,Conditions,Clouds,dailyrainin,SoftwareType,DateUTC
2013-06-28 00:01:00,58.0,46.0,-100.00,SE,140,3.0,4.0,64,-99.99,,,-99.99,,2013-06-28 07:01:00,
2013-06-28 00:11:00,58.0,46.0,-100.00,ESE,120,1.0,5.0,66,-99.99,,,-99.99,,2013-06-28 07:11:00,
2013-06-28 00:33:00,58.0,46.0,-100.00,ESE,120,1.0,5.0,66,-99.99,,,-99.99,,2013-06-28 07:33:00,
2013-06-28 00:42:00,56.0,46.0,-100.00,ENE,75,1.0,2.0,68,-99.99,,,-99.99,,2013-06-28 07:42:00,
2013-06-28 01:01:00,55.0,45.0,-100.00,ESE,115,0.0,2.0,69,-99.99,,,-99.99,,2013-06-28 08:01:00,
2013-06-28 01:11:00,55.0,45.0,-100.00,ESE,115,0.0,2.0,69,-99.99,,,-99.99,,2013-06-28 08:11:00,
2013-06-28 01:33:00,54.0,45.0,-100.00,East,85,1.0,4.0,71,-99.99,,,-99.99,,2013-06-28 08:33:00,
2013-06-28 01:43:00,54.0,45.0,-100.00,East,85,1.0,4.0,71,-99.99,,,-99.99,,2013-06-28 08:43:00,
2013-06-28 02:02:00,53.0,45.0,-100.00,East,95,1.0,2.0,73,-99.99,,,-99.99,,2013-06-28 09:02:00,
2013-06-28 02:11:00,53.0,45.0,-100.00,East,85,1.0,5.0,74,-99.99,,,-99.99,,2013-06-28 09:11:00,
2013-06-28 02:33:00,52.0,45.0,-100.00,East,85,0.0,1.0,75,-99.99,,,-99.99,,2013-06-28 09:33:00,
2013-06-28 02:42:00,52.0,44.0,-100.00,East,80,1.0,4.0,76,-99.99,,,-99.99,,2013-06-28 09:42:00,
2013-06-28 03:02:00,51.0,44.0,-100.00,East,95,1.0,4.0,76,-99.99,,,-99.99,,2013-06-28 10:02:00,
2013-06-28 03:11:00,51.0,44.0,-100.00,East,80,1.0,3.0,77,-99.99,,,-99.99,,2013-06-28 10:11:00,
2013-06-28 03:33:00,51.0,44.0,-100.00,SE,135,2.0,3.0,78,-99.99,,,-99.99,,2013-06-28 10:33:00,
2013-06-28 03:42:00,50.0,44.0,-100.00,SE,145,2.0,4.0,78,-99.99,,,-99.99,,2013-06-28 10:42:00,
2013-06-28 04:01:00,50.0,44.0,-100.00,SE,135,2.0,5.0,78,-99.99,,,-99.99,,2013-06-28 11:01:00,
2013-06-28 04:11:00,50.0,44.0,-100.00,SE,135,2.0,5.0,78,-99.99,,,-99.99,,2013-06-28 11:11:00,
2013-06-28 04:22:00,50.0,44.0,-100.00,SE,135,2.0,5.0,78,-99.99,,,-99.99,,2013-06-28 11:22:00,
2013-06-28 04:34:00,50.0,43.0,-100.00,East,85,1.0,3.0,79,-99.99,,,-99.99,,2013-06-28 11:34:00,
2013-06-28 05:01:00,49.0,43.0,-100.00,ESE,120,1.0,3.0,80,-99.99,,,-99.99,,2013-06-28 12:01:00,
2013-06-28 05:12:00,49.0,43.0,-100.00,ESE,120,1.0,3.0,80,-99.99,,,-99.99,,2013-06-28 12:12:00,
2013-06-28 05:33:00,48.0,43.0,-100.00,East,80,1.0,4.0,81,-99.99,,,-99.99,,2013-06-28 12:33:00,
2013-06-28 05:40:00,48.0,43.0,-100.00,SE,140,2.0,3.0,82,-99.99,,,-99.99,,2013-06-28 12:40:00,
2013-06-28 05:43:00,48.0,43.0,-100.00,East,80,1.0,4.0,81,-99.99,,,-99.99,,2013-06-28 12:43:00,
2013-06-28 06:01:00,48.0,42.0,-100.00,East,90,0.0,2.0,81,-99.99,,,-99.99,,2013-06-28 13:01:00,
2013-06-28 06:23:00,48.0,43.0,-100.00,SE,140,2.0,3.0,82,-99.99,,,-99.99,,2013-06-28 13:23:00,
2013-06-28 06:33:00,48.0,43.0,-100.00,SE,140,2.0,3.0,82,-99.99,,,-99.99,,2013-06-28 13:33:00,
2013-06-28 11:10:00,81.0,44.0,-100.00,NW,310,3.0,7.0,28,-99.99,,,-99.99,,2013-06-28 18:10:00,
2013-06-28 11:43:00,81.0,44.0,-100.00,NW,310,3.0,7.0,28,-99.99,,,-99.99,,2013-06-28 18:43:00,
2013-06-28 12:01:00,81.0,44.0,-100.00,NW,310,3.0,7.0,28,-99.99,,,-99.99,,2013-06-28 19:01:00,
2013-06-28 13:11:00,90.0,46.0,-100.00,NNW,335,3.0,10.0,22,-99.99,,,-99.99,,2013-06-28 20:11:00,
2013-06-28 13:22:00,90.0,46.0,-100.00,NNW,335,3.0,10.0,22,-99.99,,,-99.99,,2013-06-28 20:22:00,
2013-06-28 13:33:00,90.0,46.0,-100.00,WNW,300,4.0,9.0,22,-99.99,,,-99.99,,2013-06-28 20:33:00,
2013-06-28 13:43:00,92.0,46.0,-100.00,WNW,295,4.0,9.0,21,-99.99,,,-99.99,,2013-06-28 20:43:00,
2013-06-28 13:52:00,92.0,46.0,-100.00,WNW,295,4.0,9.0,21,-99.99,,,-99.99,,2013-06-28 20:52:00,
2013-06-28 14:01:00,93.0,48.0,-100.00,North,0,2.0,9.0,21,-99.99,,,-99.99,,2013-06-28 21:01:00,
2013-06-28 14:11:00,94.0,46.0,-100.00,WNW,300,4.0,9.0,19,-99.99,,,-99.99,,2013-06-28 21:11:00,
2013-06-28 14:34:00,95.0,46.0,-100.00,NW,305,2.0,11.0,19,-99.99,,,-99.99,,2013-06-28 21:34:00,
2013-06-28 14:43:00,95.0,46.0,-100.00,NW,305,2.0,11.0,19,-99.99,,,-99.99,,2013-06-28 21:43:00,
2013-06-28 15:01:00,98.0,47.0,-100.00,NNE,15,3.0,11.0,18,-99.99,,,-99.99,,2013-06-28 22:01:00,
2013-06-28 15:11:00,98.0,47.0,-100.00,NNE,15,3.0,11.0,18,-99.99,,,-99.99,,2013-06-28 22:11:00,
2013-06-28 15:43:00,98.0,47.0,-100.00,NW,305,4.0,10.0,18,-99.99,,,-99.99,,2013-06-28 22:43:00,
2013-06-28 16:01:00,100.0,47.0,-100.00,WNW,290,4.0,7.0,17,-99.99,,,-99.99,,2013-06-28 23:01:00,
2013-06-28 16:11:00,99.0,48.0,-100.00,ENE,75,4.0,9.0,18,-99.99,,,-99.99,,2013-06-28 23:11:00,
2013-06-28 16:23:00,99.0,48.0,-100.00,ENE,75,4.0,9.0,18,-99.99,,,-99.99,,2013-06-28 23:23:00,
2013-06-28 16:34:00,99.0,49.0,-100.00,NE,50,2.0,7.0,19,-99.99,,,-99.99,,2013-06-28 23:34:00,
2013-06-28 16:43:00,99.0,49.0,-100.00,NE,50,2.0,7.0,19,-99.99,,,-99.99,,2013-06-28 23:43:00,
2013-06-28 16:53:00,98.0,47.0,-100.00,North,0,2.0,7.0,18,-99.99,,,-99.99,,2013-06-28 23:53:00,
2013-06-28 17:02:00,98.0,47.0,-100.00,North,0,2.0,7.0,18,-99.99,,,-99.99,,2013-06-29 00:02:00,
2013-06-28 17:22:00,98.0,47.0,-100.00,NE,40,2.0,7.0,18,-99.99,,,-99.99,,2013-06-29 00:22:00,
2013-06-28 17:33:00,98.0,47.0,-100.00,North,0,1.0,6.0,18,-99.99,,,-99.99,,2013-06-29 00:33:00,
2013-06-28 17:42:00,98.0,47.0,-100.00,North,0,1.0,6.0,18,-99.99,,,-99.99,,2013-06-29 00:42:00,
2013-06-28 17:52:00,98.0,45.0,-100.00,ESE,115,1.0,7.0,17,-99.99,,,-99.99,,2013-06-29 00:52:00,
2013-06-28 18:01:00,98.0,45.0,-100.00,ESE,115,1.0,7.0,17,-99.99,,,-99.99,,2013-06-29 01:01:00,
2013-06-28 18:11:00,97.0,46.0,-100.00,East,80,1.0,6.0,18,-99.99,,,-99.99,,2013-06-29 01:11:00,
2013-06-28 18:51:00,94.0,47.0,-100.00,SE,145,3.0,6.0,20,-99.99,,,-99.99,,2013-06-29 01:51:00,
2013-06-28 19:01:00,94.0,47.0,-100.00,SE,145,3.0,6.0,20,-99.99,,,-99.99,,2013-06-29 02:01:00,
2013-06-28 19:10:00,92.0,48.0,-100.00,ENE,75,1.0,4.0,22,-99.99,,,-99.99,,2013-06-29 02:10:00,
2013-06-28 19:31:00,91.0,49.0,-100.00,SSE,160,2.0,6.0,24,-99.99,,,-99.99,,2013-06-29 02:31:00,
2013-06-28 19:41:00,91.0,49.0,-100.00,SSE,160,2.0,6.0,24,-99.99,,,-99.99,,2013-06-29 02:41:00,
2013-06-28 19:51:00,90.0,50.0,-100.00,SSE,150,1.0,5.0,26,-99.99,,,-99.99,,2013-06-29 02:51:00,
2013-06-28 20:01:00,90.0,50.0,-100.00,SSE,150,1.0,5.0,26,-99.99,,,-99.99,,2013-06-29 03:01:00,
2013-06-28 20:11:00,88.0,50.0,-100.00,East,100,1.0,2.0,28,-99.99,,,-99.99,,2013-06-29 03:11:00,
2013-06-28 20:21:00,88.0,50.0,-100.00,East,100,1.0,2.0,28,-99.99,,,-99.99,,2013-06-29 03:21:00,
2013-06-28 20:31:00,86.0,51.0,-100.00,SE,135,0.0,2.0,30,-99.99,,,-99.99,,2013-06-29 03:31:00,
2013-06-28 20:41:00,82.0,52.0,-100.00,NNE,25,2.0,6.0,35,-99.99,,,-99.99,,2013-06-29 03:41:00,
2013-06-28 20:51:00,80.0,52.0,-100.00,SE,135,2.0,5.0,38,-99.99,,,-99.99,,2013-06-29 03:51:00,
2013-06-28 21:01:00,80.0,52.0,-100.00,SE,135,2.0,5.0,38,-99.99,,,-99.99,,2013-06-29 04:01:00,
2013-06-28 21:10:00,80.0,52.0,-100.00,SE,135,2.0,5.0,38,-99.99,,,-99.99,,2013-06-29 04:10:00,
2013-06-28 21:41:00,76.0,55.0,-100.00,SE,130,0.0,2.0,48,-99.99,,,-99.99,,2013-06-29 04:41:00,
2013-06-28 21:51:00,76.0,55.0,-100.00,SE,130,0.0,2.0,48,-99.99,,,-99.99,,2013-06-29 04:51:00,
2013-06-28 22:01:00,76.0,55.0,-100.00,SE,130,0.0,2.0,48,-99.99,,,-99.99,,2013-06-29 05:01:00,
2013-06-28 22:10:00,73.0,56.0,-100.00,East,85,1.0,2.0,55,-99.99,,,-99.99,,2013-06-29 05:10:00,
2013-06-28 22:31:00,72.0,56.0,-100.00,SSE,155,2.0,3.0,56,-99.99,,,-99.99,,2013-06-29 05:31:00,
2013-06-28 22:40:00,69.0,55.0,-100.00,SE,140,2.0,2.0,62,-99.99,,,-99.99,,2013-06-29 05:40:00,
2013-06-28 22:41:00,71.0,55.0,-100.00,SE,135,1.0,2.0,58,-99.99,,,-99.99,,2013-06-29 05:41:00,
2013-06-28 22:51:00,70.0,56.0,-100.00,SE,145,1.0,2.0,61,-99.99,,,-99.99,,2013-06-29 05:51:00,
2013-06-28 23:01:00,70.0,56.0,-100.00,SE,145,1.0,2.0,61,-99.99,,,-99.99,,2013-06-29 06:01:00,
2013-06-28 23:12:00,69.0,55.0,-100.00,SE,140,2.0,2.0,62,-99.99,,,-99.99,,2013-06-29 06:12:00,
2013-06-28 23:33:00,69.0,55.0,-100.00,SE,140,2.0,2.0,62,-99.99,,,-99.99,,2013-06-29 06:33:00,
2013-06-28 23:40:00,66.0,56.0,-100.00,SSE,150,2.0,2.0,71,-99.99,,,-99.99,,2013-06-29 06:40:00,